Main page
METAR-TAF:

METAR-TAF

Airports :

King Khalid Military City

Hafar Al-Batin, Saudi Arabia

latitude: 27-54N, longitude: 045-32E, elevation: 413 m

METAR: missing

Time: 06:11 (03:11 UTC)

Forecast

The report was made 22 hours and 11 minutes ago, at 05:00 UTC
Forecast valid from 23 at 06 UTC to 23 at 20 UTC
Wind 10 kt from the North/Northwest with gusts up to 20 kt
Visibility: 7000 m
Temporary
from 23 at 06 UTC to 23 at 18 UTC
Visibility: 3000 m
widespread dust, Blowing dust
Probability 30% :
Temporary
from 23 at 08 UTC to 23 at 14 UTC
Visibility: 1000 m
Blowing sand

TAF: OEKK 230500Z 2306/2320 34010G20KT 7000 NSC TEMPO 2306/2318 3000 DU BLDU PROB30 TEMPO 2308/2314 1000 BLSA

Weather observations and forecasts of more than 4000 airports (METAR and TAF reports).

The available stations are represented by yellow and red dots on the map.

Hover mouse over dot to see the name of the station.

Then click to see weather observations and forecasts.

To change the map : click on the green buttons with a black cross to zoom in, on the green button with a dash to zoom out, or on the green arrows for adjacent maps.


METAR-TAF: